This is the latest recevied weather packets stored in our database for station/object SP8C-13. If no packets are shown the sender has not sent any weather packets the latest 10 day(s).
| Time | Temp. | Humidity | Pressure | Rain* | Wind** | Luminosity | Snow |
|---|---|---|---|---|---|---|---|
| 1788423438 | 17.22° C | 83% | 1020.3 hPa | - | - | - | - |
| 1788421638 | 15.56° C | 92% | 1020 hPa | - | - | - | - |
| 1788419838 | 15.56° C | 89% | 1020.5 hPa | - | - | - | - |
| 1788416238 | 13.89° C | 88% | 1020.5 hPa | - | - | - | - |
| 1788414438 | 13.89° C | 86% | 1020.1 hPa | - | - | - | - |
| 1788412638 | 13.33° C | 86% | 1019.9 hPa | - | - | - | - |
| 1788410838 | 13.33° C | 85% | 1020 hPa | - | - | - | - |
| 1788409038 | 10.56° C | 95% | 1019.5 hPa | - | - | - | - |
| 1788407237 | 11.67° C | 92% | 1019.5 hPa | - | - | - | - |
| 1788405438 | 11.11° C | 93% | 1019.5 hPa | - | - | - | - |
| 1788403637 | 11.67° C | 91% | 1019.5 hPa | - | - | - | - |
| 1788357599 | 22.22° C | 56% | 1020.4 hPa | - | - | - | - |
| 1788355799 | 20.56° C | 63% | 1020.2 hPa | - | - | - | - |
| 1788351138 | 25° C | 48% | 1020.1 hPa | - | - | - | - |
| 1788347538 | 25° C | 47% | 1020.6 hPa | - | - | - | - |
| 1788345738 | 25° C | 46% | 1020.8 hPa | - | - | - | - |
| 1788343938 | 25.56° C | 49% | 1021 hPa | - | - | - | - |
| 1788342138 | 24.44° C | 50% | 1021.3 hPa | - | - | - | - |
| 1788340338 | 24.44° C | 53% | 1021.2 hPa | - | - | - | - |
| 1788338538 | 23.89° C | 54% | 1021.3 hPa | - | - | - | - |
| 1788336738 | 22.78° C | 58% | 1021.5 hPa | - | - | - | - |
| 1788334938 | 21.67° C | 60% | 1021.5 hPa | - | - | - | - |
| 1788333138 | 19.44° C | 65% | 1021.2 hPa | - | - | - | - |
| 1788331338 | 20° C | 65% | 1021.2 hPa | - | - | - | - |
| 1788329538 | 18.89° C | 67% | 1021 hPa | - | - | - | - |
* Rain since midnight (hover to see other rain measurements)
** Current wind speed in m/s (hover to see current wind gust speed)